Skipperville, Alabama
Current Conditions -  °F | °C
As of 5:53 AM on Wednesday 28 Jan 2015 (Local Time) from KHEY Reporting Station
Clear Clear  
Wind Chill: 30°   Ceiling: Unl
Heat Index: 34°   Visibility: 10mi
Dew Point: 29°   Wind: 5mph
Humidity: 82%   Direction: 340°NNW
Pressure: 30.22"   Gusts: NA
Location:  31.56°N, 85.55°W
Report Text: KHEY 281153Z AUTO 34004KT 10SM CLR 01/M02 A3022 RMK AO2 SLP226 T00111017 10039 20006 53017
Loading
Personal Weather Stations






























Interactive Weather Map New forecast layout! Learn more

10-Day Weather Forecast

Advertisements
Track Severe Weather on mobile